Time;durP1;ratioP1;P1;durP2;ratioP2;P2;SDS_P1;SDS_P2;PMS_P1;PMS_P2;Temp;Humidity;BMP_temperature;BMP_pressure;BME280_temperature;BME280_humidity;BME280_pressure;Samples;Min_cycle;Max_cycle;Signal;HPM_P1;HPM_P2
2023/02/17 00:01:23;;;;;;;;;;;11.20;99.90;;;;;;5044608;28;19944;-72
2023/02/17 00:03:52;;;;;;;;;;;11.20;99.90;;;;;;5045012;28;19940;-73
2023/02/17 00:06:20;;;;;;;;;;;11.10;99.90;;;;;;5043410;28;19929;-73
2023/02/17 00:08:47;;;;;;;;;;;11.10;99.90;;;;;;5043213;28;20036;-74
2023/02/17 00:11:14;;;;;;;;;;;11.10;99.90;;;;;;5045835;28;20406;-72
2023/02/17 00:13:41;;;;;;;;;;;11.10;99.90;;;;;;5043406;28;19933;-73
2023/02/17 00:16:08;;;;;;;;;;;11.10;99.90;;;;;;5050125;28;20015;-72
2023/02/17 00:18:34;;;;;;;;;;;11.10;99.90;;;;;;5043572;28;19929;-74
2023/02/17 00:21:10;;;;;;;;;;;11.10;99.90;;;;;;5043029;28;19932;-73
2023/02/17 00:23:36;;;;;;;;;;;11.10;99.90;;;;;;5047797;28;20311;-73
2023/02/17 00:26:04;;;;;;;;;;;11.10;99.90;;;;;;5042765;28;20462;-72
2023/02/17 00:28:31;;;;;;;;;;;11.00;99.90;;;;;;5044175;28;20257;-72
2023/02/17 00:30:57;;;;;;;;;;;11.00;99.90;;;;;;5046914;28;19955;-73
2023/02/17 00:33:24;;;;;;;;;;;11.00;99.90;;;;;;5042441;28;20295;-74
2023/02/17 00:35:51;;;;;;;;;;;11.00;99.90;;;;;;5043864;28;19929;-74
2023/02/17 00:38:19;;;;;;;;;;;11.00;99.90;;;;;;5046392;28;19935;-74
2023/02/17 00:40:45;;;;;;;;;;;10.90;99.90;;;;;;5043539;28;19928;-74
2023/02/17 00:43:13;;;;;;;;;;;10.90;99.90;;;;;;5044461;28;19931;-74
2023/02/17 00:45:39;;;;;;;;;;;10.90;99.90;;;;;;5044939;28;20011;-74
2023/02/17 00:48:06;;;;;;;;;;;10.90;99.90;;;;;;5043587;28;19932;-75
2023/02/17 00:50:33;;;;;;;;;;;10.90;99.90;;;;;;5050815;28;19931;-75
2023/02/17 00:53:00;;;;;;;;;;;10.90;99.90;;;;;;5043533;28;19929;-72
2023/02/17 00:55:28;;;;;;;;;;;10.90;99.90;;;;;;5046344;28;20008;-72
2023/02/17 00:57:54;;;;;;;;;;;10.90;99.90;;;;;;5048158;28;20272;-73
2023/02/17 01:00:21;;;;;;;;;;;10.80;99.90;;;;;;5040902;28;19933;-73
2023/02/17 01:02:48;;;;;;;;;;;10.80;99.90;;;;;;5045660;28;20388;-73
2023/02/17 01:05:14;;;;;;;;;;;10.80;99.90;;;;;;5050029;28;20006;-74
2023/02/17 01:07:41;;;;;;;;;;;10.70;99.90;;;;;;5042009;28;20011;-73
2023/02/17 01:10:09;;;;;;;;;;;10.70;99.90;;;;;;5050462;28;20405;-75
2023/02/17 01:12:37;;;;;;;;;;;10.70;99.90;;;;;;5041877;28;20307;-73
2023/02/17 01:15:04;;;;;;;;;;;10.70;99.90;;;;;;5052955;28;19925;-73
2023/02/17 01:17:31;;;;;;;;;;;10.60;99.90;;;;;;5044533;28;20471;-73
2023/02/17 01:19:58;;;;;;;;;;;10.60;99.90;;;;;;5031647;28;20034;-74
2023/02/17 01:22:24;;;;;;;;;;;10.60;99.90;;;;;;5029787;28;19939;-74
2023/02/17 01:24:51;;;;;;;;;;;10.60;99.90;;;;;;5027509;28;19932;-74
2023/02/17 01:27:18;;;;;;;;;;;10.60;99.90;;;;;;5026475;28;19933;-74
2023/02/17 01:29:46;;;;;;;;;;;10.60;99.90;;;;;;5028545;28;19937;-74
2023/02/17 01:32:13;;;;;;;;;;;10.50;99.90;;;;;;5031977;28;19933;-73
2023/02/17 01:34:39;;;;;;;;;;;10.50;99.90;;;;;;5030192;28;20296;-72
2023/02/17 01:37:06;;;;;;;;;;;10.50;99.90;;;;;;5025935;28;20307;-73
2023/02/17 01:39:32;;;;;;;;;;;10.50;99.90;;;;;;5028986;28;20425;-74
2023/02/17 01:41:59;;;;;;;;;;;10.50;99.90;;;;;;5026422;28;20321;-74
2023/02/17 01:44:26;;;;;;;;;;;10.60;99.90;;;;;;5028410;28;19928;-73
2023/02/17 01:46:55;;;;;;;;;;;10.50;99.90;;;;;;5024220;28;19956;-74
2023/02/17 01:49:26;;;;;;;;;;;10.50;99.90;;;;;;5028345;28;19943;-73
2023/02/17 01:51:55;;;;;;;;;;;10.50;99.90;;;;;;5029175;28;20019;-74
2023/02/17 01:54:25;;;;;;;;;;;10.50;99.90;;;;;;5029582;28;19935;-75
2023/02/17 01:56:52;;;;;;;;;;;10.50;99.90;;;;;;5025139;28;19933;-74
2023/02/17 01:59:20;;;;;;;;;;;10.50;99.90;;;;;;5025901;28;19926;-73
2023/02/17 02:01:47;;;;;;;;;;;10.50;99.90;;;;;;5025184;28;20658;-75
2023/02/17 02:04:17;;;;;;;;;;;10.50;99.90;;;;;;5027247;28;19943;-75
2023/02/17 02:06:44;;;;;;;;;;;10.50;99.90;;;;;;5025074;28;19933;-75
2023/02/17 02:09:13;;;;;;;;;;;10.50;99.90;;;;;;5025707;28;19935;-75
2023/02/17 02:11:40;;;;;;;;;;;10.60;99.90;;;;;;5027667;28;19939;-75
2023/02/17 02:14:08;;;;;;;;;;;10.50;99.90;;;;;;5026217;28;20046;-75
2023/02/17 02:16:38;;;;;;;;;;;10.50;99.90;;;;;;5024480;28;20311;-74
2023/02/17 02:19:14;;;;;;;;;;;10.50;99.90;;;;;;5028256;28;19933;-74
2023/02/17 02:21:55;;;;;;;;;;;10.40;99.90;;;;;;5024967;28;19952;-75
2023/02/17 02:24:27;;;;;;;;;;;10.40;99.90;;;;;;5026056;28;19955;-76
2023/02/17 02:27:01;;;;;;;;;;;10.40;99.90;;;;;;5026591;28;20221;-73
2023/02/17 02:29:46;;;;;;;;;;;10.30;99.90;;;;;;5030203;28;19932;-73
2023/02/17 02:32:40;;;;;;;;;;;10.30;99.90;;;;;;5025292;28;19939;-74
2023/02/17 02:35:08;;;;;;;;;;;10.30;99.90;;;;;;5024943;28;20391;-73
2023/02/17 02:37:38;;;;;;;;;;;10.30;99.90;;;;;;5024314;28;20608;-74
2023/02/17 02:40:07;;;;;;;;;;;10.20;99.90;;;;;;5026066;28;19932;-73
2023/02/17 02:42:34;;;;;;;;;;;10.30;99.90;;;;;;5025323;28;19929;-73
2023/02/17 02:45:01;;;;;;;;;;;10.20;99.90;;;;;;5026864;28;20023;-74
2023/02/17 02:47:44;;;;;;;;;;;10.20;99.90;;;;;;5024225;28;19932;-73
2023/02/17 02:50:11;;;;;;;;;;;10.20;99.90;;;;;;5026794;28;19928;-76
2023/02/17 02:52:42;;;;;;;;;;;10.20;99.90;;;;;;5027106;28;20037;-74
2023/02/17 02:55:12;;;;;;;;;;;10.20;99.90;;;;;;5030219;28;19925;-74
2023/02/17 02:57:44;;;;;;;;;;;10.20;99.90;;;;;;5027107;28;19951;-74
2023/02/17 03:00:15;;;;;;;;;;;10.20;99.90;;;;;;5024741;28;20015;-75
2023/02/17 03:02:47;;;;;;;;;;;10.10;99.90;;;;;;5026325;28;19943;-74
2023/02/17 03:05:16;;;;;;;;;;;10.20;99.90;;;;;;5027361;28;19928;-73
2023/02/17 03:07:44;;;;;;;;;;;10.10;99.90;;;;;;5026461;28;19929;-74
2023/02/17 03:10:11;;;;;;;;;;;10.10;99.90;;;;;;5023460;28;20387;-75
2023/02/17 03:12:38;;;;;;;;;;;10.20;99.90;;;;;;5025465;28;19986;-74
2023/02/17 03:15:09;;;;;;;;;;;10.10;99.90;;;;;;5028247;28;20713;-74
2023/02/17 03:17:35;;;;;;;;;;;10.20;99.90;;;;;;5025152;28;19933;-73
2023/02/17 03:20:04;;;;;;;;;;;10.10;99.90;;;;;;5024948;28;19960;-75
2023/02/17 03:22:33;;;;;;;;;;;10.20;99.90;;;;;;5024965;28;19935;-75
2023/02/17 03:25:00;;;;;;;;;;;10.20;99.90;;;;;;5023863;28;19928;-73
2023/02/17 03:27:26;;;;;;;;;;;10.20;99.90;;;;;;5026981;28;19948;-74
2023/02/17 03:29:53;;;;;;;;;;;10.20;99.90;;;;;;5026050;28;19932;-74
2023/02/17 03:32:20;;;;;;;;;;;10.20;99.90;;;;;;5023057;28;20289;-74
2023/02/17 03:34:47;;;;;;;;;;;10.20;99.90;;;;;;5025416;28;19960;-74
2023/02/17 03:37:15;;;;;;;;;;;10.20;99.90;;;;;;5023723;28;19992;-74
2023/02/17 03:39:42;;;;;;;;;;;10.20;99.90;;;;;;5025061;28;19990;-73
2023/02/17 03:42:09;;;;;;;;;;;10.20;99.90;;;;;;5024415;28;19948;-73
2023/02/17 03:44:35;;;;;;;;;;;10.30;99.90;;;;;;5025603;28;19933;-74
2023/02/17 03:47:02;;;;;;;;;;;10.20;99.90;;;;;;5024275;28;19932;-75
2023/02/17 03:49:29;;;;;;;;;;;10.20;99.90;;;;;;5028027;28;19932;-75
2023/02/17 03:51:56;;;;;;;;;;;10.20;99.90;;;;;;5027879;28;20032;-74
2023/02/17 03:54:25;;;;;;;;;;;10.20;99.90;;;;;;5032485;28;19986;-72
2023/02/17 03:56:51;;;;;;;;;;;10.20;99.90;;;;;;5029484;28;19960;-73
2023/02/17 03:59:18;;;;;;;;;;;10.30;99.90;;;;;;5031629;28;20055;-72
2023/02/17 04:01:45;;;;;;;;;;;10.20;99.90;;;;;;5027420;28;19951;-75
2023/02/17 04:04:11;;;;;;;;;;;10.20;99.90;;;;;;5030254;28;19939;-72
2023/02/17 04:06:38;;;;;;;;;;;10.20;99.90;;;;;;5029783;28;20027;-73
2023/02/17 04:09:05;;;;;;;;;;;10.20;99.90;;;;;;5028913;28;19939;-73
2023/02/17 04:11:33;;;;;;;;;;;10.20;99.90;;;;;;5027208;28;19925;-73
2023/02/17 04:13:59;;;;;;;;;;;10.20;99.90;;;;;;5029592;28;21093;-73
2023/02/17 04:16:26;;;;;;;;;;;10.20;99.90;;;;;;5026345;28;19933;-74
2023/02/17 04:18:53;;;;;;;;;;;10.20;99.90;;;;;;5030471;28;19929;-72
2023/02/17 04:21:20;;;;;;;;;;;10.20;99.90;;;;;;5027450;28;19933;-73
2023/02/17 04:23:47;;;;;;;;;;;10.20;99.90;;;;;;5028829;28;19931;-73
2023/02/17 04:26:13;;;;;;;;;;;10.20;99.90;;;;;;5027107;28;20380;-72
2023/02/17 04:28:42;;;;;;;;;;;10.20;99.90;;;;;;5030837;28;19956;-73
2023/02/17 04:31:08;;;;;;;;;;;10.20;99.90;;;;;;5029581;28;20392;-74
2023/02/17 04:33:36;;;;;;;;;;;10.20;99.90;;;;;;5027010;28;19933;-73
2023/02/17 04:36:03;;;;;;;;;;;10.20;99.90;;;;;;5028577;28;19936;-74
2023/02/17 04:38:31;;;;;;;;;;;10.20;99.90;;;;;;5026722;28;20047;-73
2023/02/17 04:40:59;;;;;;;;;;;10.20;99.90;;;;;;5027474;28;19928;-74
2023/02/17 04:43:26;;;;;;;;;;;10.20;99.90;;;;;;5031045;28;19939;-74
2023/02/17 04:45:55;;;;;;;;;;;10.20;99.90;;;;;;5028881;28;20411;-74
2023/02/17 04:48:21;;;;;;;;;;;10.20;99.90;;;;;;5028868;28;19935;-73
2023/02/17 04:50:48;;;;;;;;;;;10.20;99.90;;;;;;5028733;28;19933;-74
2023/02/17 04:53:15;;;;;;;;;;;10.20;99.90;;;;;;5029499;28;20071;-75
2023/02/17 04:55:42;;;;;;;;;;;10.20;99.90;;;;;;5032610;28;20521;-74
2023/02/17 04:58:09;;;;;;;;;;;10.20;99.90;;;;;;5025769;28;20024;-73
2023/02/17 05:00:36;;;;;;;;;;;10.20;99.90;;;;;;5027574;28;19936;-75
2023/02/17 05:03:04;;;;;;;;;;;10.20;99.90;;;;;;5024173;28;20098;-72
2023/02/17 05:05:31;;;;;;;;;;;10.20;99.90;;;;;;5026793;28;19932;-75
2023/02/17 05:07:57;;;;;;;;;;;10.20;99.90;;;;;;5026572;28;19971;-73
2023/02/17 05:10:24;;;;;;;;;;;10.20;99.90;;;;;;5026174;28;20020;-72
2023/02/17 05:12:51;;;;;;;;;;;10.20;99.90;;;;;;5026733;28;20025;-72
2023/02/17 05:15:18;;;;;;;;;;;10.20;99.90;;;;;;5026270;28;20323;-72
2023/02/17 05:17:45;;;;;;;;;;;10.20;99.90;;;;;;5028386;28;20415;-74
2023/02/17 05:20:13;;;;;;;;;;;10.20;99.90;;;;;;5027702;28;19932;-73
2023/02/17 05:22:40;;;;;;;;;;;10.20;99.90;;;;;;5028135;28;19929;-73
2023/02/17 05:25:07;;;;;;;;;;;10.20;99.90;;;;;;5025761;28;19943;-72
2023/02/17 05:27:34;;;;;;;;;;;10.20;99.90;;;;;;5026704;28;19929;-72
2023/02/17 05:30:01;;;;;;;;;;;10.20;99.90;;;;;;5027184;28;20027;-72
2023/02/17 05:32:27;;;;;;;;;;;10.20;99.90;;;;;;5032213;28;20397;-72
2023/02/17 05:34:54;;;;;;;;;;;10.20;99.90;;;;;;5029340;28;19933;-74
2023/02/17 05:37:22;;;;;;;;;;;10.10;99.90;;;;;;5025854;28;19939;-74
2023/02/17 05:39:49;;;;;;;;;;;10.10;99.90;;;;;;5029302;28;19929;-73
2023/02/17 05:42:16;;;;;;;;;;;10.10;99.90;;;;;;5028063;28;19929;-73
2023/02/17 05:44:42;;;;;;;;;;;10.20;99.90;;;;;;5029882;28;20008;-72
2023/02/17 05:47:09;;;;;;;;;;;10.10;99.90;;;;;;5023777;28;19929;-72
2023/02/17 05:49:36;;;;;;;;;;;10.10;99.90;;;;;;5029038;28;20412;-71
2023/02/17 05:52:03;;;;;;;;;;;10.10;99.90;;;;;;5031444;28;19929;-73
2023/02/17 05:54:31;;;;;;;;;;;10.10;99.90;;;;;;5032808;28;19932;-74
2023/02/17 05:56:58;;;;;;;;;;;10.10;99.90;;;;;;5031931;28;19933;-73
2023/02/17 05:59:24;;;;;;;;;;;10.10;99.90;;;;;;5033027;28;20035;-72
2023/02/17 06:01:51;;;;;;;;;;;10.10;99.90;;;;;;5032354;28;20504;-73
2023/02/17 06:04:18;;;;;;;;;;;10.10;99.90;;;;;;5030901;28;20331;-72
2023/02/17 06:06:44;;;;;;;;;;;10.10;99.90;;;;;;5024722;28;19964;-72
2023/02/17 06:09:11;;;;;;;;;;;10.10;99.90;;;;;;5028352;28;19928;-72
2023/02/17 06:11:39;;;;;;;;;;;10.10;99.90;;;;;;5025062;28;21791;-72
2023/02/17 06:14:06;;;;;;;;;;;10.20;99.90;;;;;;5027460;28;19933;-72
2023/02/17 06:16:32;;;;;;;;;;;10.20;99.90;;;;;;5028356;28;19956;-72
2023/02/17 06:19:03;;;;;;;;;;;10.10;99.90;;;;;;5024460;28;19939;-74
2023/02/17 06:21:30;;;;;;;;;;;10.10;99.90;;;;;;5027352;28;20003;-73
2023/02/17 06:23:57;;;;;;;;;;;10.20;99.90;;;;;;5025339;28;19933;-72
2023/02/17 06:26:24;;;;;;;;;;;10.20;99.90;;;;;;5032385;28;19929;-72
2023/02/17 06:28:52;;;;;;;;;;;10.20;99.90;;;;;;5030399;28;19932;-73
2023/02/17 06:31:18;;;;;;;;;;;10.20;99.90;;;;;;5030517;28;22556;-73
2023/02/17 06:33:45;;;;;;;;;;;10.20;99.90;;;;;;5032066;28;20022;-73
2023/02/17 06:36:12;;;;;;;;;;;10.20;99.90;;;;;;5031130;28;19949;-73
2023/02/17 06:38:39;;;;;;;;;;;10.20;99.90;;;;;;5030630;28;19955;-73
2023/02/17 06:41:06;;;;;;;;;;;10.20;99.90;;;;;;5029548;28;19929;-74
2023/02/17 06:43:32;;;;;;;;;;;10.20;99.90;;;;;;5031725;28;20391;-73
2023/02/17 06:46:01;;;;;;;;;;;10.20;99.90;;;;;;5029491;28;22476;-72
2023/02/17 06:48:27;;;;;;;;;;;10.20;99.90;;;;;;5030297;28;19933;-72
2023/02/17 06:50:54;;;;;;;;;;;10.20;99.90;;;;;;5025143;28;19933;-73
2023/02/17 06:53:21;;;;;;;;;;;10.30;99.90;;;;;;5029892;28;20204;-74
2023/02/17 06:55:47;;;;;;;;;;;10.30;99.90;;;;;;5031221;28;19971;-73
2023/02/17 06:58:14;;;;;;;;;;;10.30;99.90;;;;;;5025431;28;19929;-73
2023/02/17 07:00:41;;;;;;;;;;;10.30;99.90;;;;;;5023950;28;20280;-73
2023/02/17 07:03:09;;;;;;;;;;;10.30;99.90;;;;;;5029588;28;19939;-74
2023/02/17 07:05:39;;;;;;;;;;;10.30;99.90;;;;;;5031630;28;19933;-75
2023/02/17 07:08:06;;;;;;;;;;;10.30;99.90;;;;;;5033737;28;19974;-74
2023/02/17 07:10:33;;;;;;;;;;;10.30;99.90;;;;;;5031059;28;19932;-75
2023/02/17 07:13:00;;;;;;;;;;;10.40;99.90;;;;;;5033294;28;20309;-76
2023/02/17 07:15:27;;;;;;;;;;;10.40;99.90;;;;;;5028308;28;20222;-73
2023/02/17 07:17:53;;;;;;;;;;;10.40;99.90;;;;;;5029348;28;19925;-74
2023/02/17 07:20:22;;;;;;;;;;;10.40;99.90;;;;;;5028446;28;20406;-73
2023/02/17 07:22:48;;;;;;;;;;;10.40;99.90;;;;;;5029569;28;19933;-72
2023/02/17 07:25:15;;;;;;;;;;;10.40;99.90;;;;;;5028773;28;20206;-73
2023/02/17 07:27:42;;;;;;;;;;;10.40;99.90;;;;;;5031676;28;19925;-71
2023/02/17 07:30:09;;;;;;;;;;;10.40;99.90;;;;;;5031841;28;19931;-73
2023/02/17 07:32:35;;;;;;;;;;;10.50;99.90;;;;;;5032821;28;19956;-75
2023/02/17 07:35:02;;;;;;;;;;;10.50;99.90;;;;;;5031181;28;20019;-75
2023/02/17 07:37:30;;;;;;;;;;;10.50;99.90;;;;;;5030713;28;19956;-75
2023/02/17 07:39:57;;;;;;;;;;;10.50;99.90;;;;;;5034247;28;19929;-74
2023/02/17 07:42:24;;;;;;;;;;;10.50;99.90;;;;;;5030918;28;19944;-74
2023/02/17 07:44:51;;;;;;;;;;;10.50;99.90;;;;;;5027246;28;19943;-74
2023/02/17 07:47:18;;;;;;;;;;;10.60;99.90;;;;;;5029333;28;19932;-75
2023/02/17 07:49:44;;;;;;;;;;;10.60;99.90;;;;;;5031624;28;20925;-65
2023/02/17 07:52:11;;;;;;;;;;;10.60;99.90;;;;;;5027448;28;20089;-73
2023/02/17 07:54:39;;;;;;;;;;;10.70;99.90;;;;;;5030462;28;19929;-73
2023/02/17 07:57:06;;;;;;;;;;;10.70;99.90;;;;;;5029416;28;21553;-73
2023/02/17 07:59:33;;;;;;;;;;;10.70;99.90;;;;;;5029142;28;20308;-74
2023/02/17 08:01:59;;;;;;;;;;;10.70;99.90;;;;;;5029644;28;19928;-73
2023/02/17 08:04:26;;;;;;;;;;;10.70;99.90;;;;;;5029043;28;20402;-73
2023/02/17 08:06:53;;;;;;;;;;;10.70;99.90;;;;;;5031434;28;20056;-74
2023/02/17 08:15:06;;;;;;;;;;;10.80;99.90;;;;;;4970766;28;20596;-73
2023/02/17 08:17:33;;;;;;;;;;;10.80;99.90;;;;;;5005611;28;19935;-75
2023/02/17 08:20:00;;;;;;;;;;;10.80;99.90;;;;;;5031601;28;19932;-74
2023/02/17 08:22:26;;;;;;;;;;;10.90;99.90;;;;;;5030531;28;20284;-73
2023/02/17 08:24:53;;;;;;;;;;;10.90;99.90;;;;;;5031934;28;20055;-76
2023/02/17 08:27:21;;;;;;;;;;;10.90;99.90;;;;;;5031345;28;19935;-74
2023/02/17 08:29:48;;;;;;;;;;;11.00;99.90;;;;;;5032922;28;20322;-73
2023/02/17 08:32:15;;;;;;;;;;;11.00;99.90;;;;;;5030007;28;19932;-74
2023/02/17 08:34:42;;;;;;;;;;;11.20;99.90;;;;;;5032458;28;19924;-73
2023/02/17 08:37:09;;;;;;;;;;;11.20;99.90;;;;;;5028260;28;19929;-73
2023/02/17 08:39:37;;;;;;;;;;;11.30;99.90;;;;;;5030388;28;20322;-73
2023/02/17 08:42:04;;;;;;;;;;;11.40;99.90;;;;;;5031296;28;20376;-75
2023/02/17 08:44:34;;;;;;;;;;;11.40;99.90;;;;;;5029872;28;19933;-75
2023/02/17 08:47:01;;;;;;;;;;;11.50;99.90;;;;;;5031870;28;19979;-75
2023/02/17 08:49:30;;;;;;;;;;;11.60;99.90;;;;;;5031631;28;19939;-79
2023/02/17 08:51:57;;;;;;;;;;;11.60;99.90;;;;;;5036169;28;19980;-81
2023/02/17 08:54:24;;;;;;;;;;;11.60;99.90;;;;;;5037366;28;19933;-80
2023/02/17 08:56:50;;;;;;;;;;;11.60;99.90;;;;;;5033675;28;20059;-81
2023/02/17 08:59:17;;;;;;;;;;;11.70;99.90;;;;;;5032291;28;19928;-76
2023/02/17 09:01:45;;;;;;;;;;;11.90;99.90;;;;;;5030721;28;20375;-74
2023/02/17 09:04:13;;;;;;;;;;;11.90;99.90;;;;;;5031514;28;19928;-75
2023/02/17 09:06:41;;;;;;;;;;;12.30;99.90;;;;;;5034879;28;19928;-73
2023/02/17 09:09:09;;;;;;;;;;;12.50;99.90;;;;;;5032408;28;20383;-74
2023/02/17 09:11:36;;;;;;;;;;;13.00;99.90;;;;;;5029358;28;19929;-73
2023/02/17 09:14:02;;;;;;;;;;;12.60;99.90;;;;;;5031755;28;19943;-73
2023/02/17 09:16:29;;;;;;;;;;;12.50;99.90;;;;;;5031297;28;19990;-74
2023/02/17 09:18:57;;;;;;;;;;;12.50;99.90;;;;;;5030960;28;19928;-73
2023/02/17 09:21:24;;;;;;;;;;;12.60;99.90;;;;;;5028739;28;19932;-73
2023/02/17 09:23:52;;;;;;;;;;;12.60;99.90;;;;;;5030527;28;19960;-76
2023/02/17 09:26:19;;;;;;;;;;;12.70;99.90;;;;;;5027356;28;19933;-73
2023/02/17 09:28:46;;;;;;;;;;;12.60;99.90;;;;;;5031989;28;19943;-73
2023/02/17 09:31:14;;;;;;;;;;;12.50;99.90;;;;;;5032998;28;19939;-73
2023/02/17 09:33:41;;;;;;;;;;;12.60;99.90;;;;;;5032025;28;20035;-75
2023/02/17 09:36:10;;;;;;;;;;;12.60;99.90;;;;;;5028950;28;20743;-74
2023/02/17 09:38:38;;;;;;;;;;;12.80;99.90;;;;;;5027972;28;19955;-74
2023/02/17 09:41:09;;;;;;;;;;;13.00;99.90;;;;;;5027841;28;19935;-74
2023/02/17 09:43:37;;;;;;;;;;;13.20;99.90;;;;;;5027463;28;20495;-74
2023/02/17 09:46:07;;;;;;;;;;;13.10;99.90;;;;;;5028487;28;19944;-71
2023/02/17 09:48:35;;;;;;;;;;;12.80;99.90;;;;;;5029959;28;19932;-73
2023/02/17 09:51:03;;;;;;;;;;;12.80;99.90;;;;;;5026700;28;20023;-74
2023/02/17 09:53:36;;;;;;;;;;;12.70;99.90;;;;;;5029690;28;20295;-75
2023/02/17 09:56:05;;;;;;;;;;;12.60;99.90;;;;;;5026791;28;19932;-75
2023/02/17 09:58:34;;;;;;;;;;;12.60;99.90;;;;;;5025526;28;19939;-74
2023/02/17 10:01:03;;;;;;;;;;;12.60;99.90;;;;;;5028169;28;19928;-76
2023/02/17 10:03:31;;;;;;;;;;;12.60;99.90;;;;;;5029323;28;20375;-74
2023/02/17 10:06:04;;;;;;;;;;;12.60;99.90;;;;;;5032566;28;20015;-75
2023/02/17 10:08:36;;;;;;;;;;;12.70;99.90;;;;;;5031246;28;19936;-70
2023/02/17 10:11:05;;;;;;;;;;;12.70;99.90;;;;;;5030464;28;21858;-73
2023/02/17 10:13:34;;;;;;;;;;;12.90;99.90;;;;;;5028939;28;19940;-74
2023/02/17 10:16:03;;;;;;;;;;;13.00;99.90;;;;;;5027287;28;19933;-71
2023/02/17 10:18:33;;;;;;;;;;;13.10;99.90;;;;;;5029727;28;20595;-73
2023/02/17 10:21:01;;;;;;;;;;;13.20;99.90;;;;;;5029534;28;19933;-72
2023/02/17 10:23:29;;;;;;;;;;;13.20;99.90;;;;;;5030480;28;19933;-70
2023/02/17 10:26:06;;;;;;;;;;;13.30;99.90;;;;;;5028149;28;20025;-69
2023/02/17 10:28:39;;;;;;;;;;;13.30;99.90;;;;;;5028760;28;19933;-73
2023/02/17 10:31:11;;;;;;;;;;;13.30;99.90;;;;;;5027349;28;19936;-73
2023/02/17 10:33:42;;;;;;;;;;;13.30;99.90;;;;;;5031206;28;19968;-74
2023/02/17 10:36:11;;;;;;;;;;;13.40;99.90;;;;;;5030089;28;19929;-73
2023/02/17 10:38:42;;;;;;;;;;;13.40;99.90;;;;;;5027923;28;19933;-71
2023/02/17 10:41:12;;;;;;;;;;;13.60;99.90;;;;;;5025744;28;19929;-70
2023/02/17 10:43:40;;;;;;;;;;;13.70;99.90;;;;;;5029172;28;19960;-71
2023/02/17 10:46:07;;;;;;;;;;;13.60;99.90;;;;;;5028411;28;20068;-72
2023/02/17 10:48:36;;;;;;;;;;;13.60;99.90;;;;;;5030405;28;19933;-72
2023/02/17 10:51:03;;;;;;;;;;;13.50;99.90;;;;;;5025215;28;20498;-68
2023/02/17 10:53:31;;;;;;;;;;;13.30;99.90;;;;;;5026919;28;19935;-70
2023/02/17 10:56:01;;;;;;;;;;;13.40;99.90;;;;;;5028591;28;20024;-72
2023/02/17 10:58:32;;;;;;;;;;;13.30;99.90;;;;;;5029215;28;19925;-72
2023/02/17 11:01:01;;;;;;;;;;;13.40;99.90;;;;;;5025925;28;19943;-72
2023/02/17 11:03:29;;;;;;;;;;;13.50;99.90;;;;;;5030178;28;19933;-73
2023/02/17 11:05:56;;;;;;;;;;;13.40;99.90;;;;;;5030382;28;20036;-73
2023/02/17 11:08:29;;;;;;;;;;;13.50;99.90;;;;;;5030198;28;19959;-72
2023/02/17 11:11:00;;;;;;;;;;;13.70;99.90;;;;;;5031780;28;19987;-72
2023/02/17 11:13:34;;;;;;;;;;;13.70;99.90;;;;;;5031398;28;19929;-72
2023/02/17 11:16:01;;;;;;;;;;;13.60;99.90;;;;;;5031565;28;19931;-73
2023/02/17 11:18:29;;;;;;;;;;;13.50;99.90;;;;;;5032008;28;19928;-73
2023/02/17 11:21:00;;;;;;;;;;;13.50;99.90;;;;;;5030761;28;20410;-72
2023/02/17 11:23:27;;;;;;;;;;;13.50;99.90;;;;;;5031119;28;19933;-70
2023/02/17 11:26:01;;;;;;;;;;;13.60;99.90;;;;;;5031317;28;19938;-71
2023/02/17 11:28:28;;;;;;;;;;;13.80;99.90;;;;;;5032743;28;19936;-71
2023/02/17 11:30:56;;;;;;;;;;;13.80;99.90;;;;;;5030682;28;19933;-73
2023/02/17 11:33:28;;;;;;;;;;;13.60;99.90;;;;;;5030994;28;19933;-72
2023/02/17 11:35:56;;;;;;;;;;;13.70;99.90;;;;;;5032711;28;19928;-71
2023/02/17 11:38:24;;;;;;;;;;;13.60;99.90;;;;;;5031820;28;19933;-71
2023/02/17 11:40:52;;;;;;;;;;;13.60;99.90;;;;;;5030274;28;20032;-72
2023/02/17 11:43:19;;;;;;;;;;;13.70;99.90;;;;;;5032882;28;19936;-72
2023/02/17 11:45:49;;;;;;;;;;;13.60;99.90;;;;;;5031561;28;20281;-72
2023/02/17 11:48:29;;;;;;;;;;;13.60;99.90;;;;;;5031583;28;20422;-72
2023/02/17 11:51:00;;;;;;;;;;;13.50;99.90;;;;;;5029971;28;19929;-73
2023/02/17 11:53:33;;;;;;;;;;;13.40;99.90;;;;;;5030141;28;20327;-73
2023/02/17 11:56:05;;;;;;;;;;;13.30;99.90;;;;;;5031506;28;19928;-73
2023/02/17 11:58:39;;;;;;;;;;;13.30;99.90;;;;;;5031633;28;19940;-72
2023/02/17 12:01:09;;;;;;;;;;;13.10;99.90;;;;;;5030229;28;20901;-72
2023/02/17 12:03:47;;;;;;;;;;;12.90;99.90;;;;;;5029154;28;19939;-73
2023/02/17 12:06:17;;;;;;;;;;;13.00;99.90;;;;;;5029485;28;19983;-73
2023/02/17 12:08:51;;;;;;;;;;;13.10;99.90;;;;;;5031043;28;19939;-72
2023/02/17 12:11:22;;;;;;;;;;;13.20;99.90;;;;;;5029168;28;19943;-70
2023/02/17 12:13:55;;;;;;;;;;;13.30;99.90;;;;;;5028064;28;19999;-71
2023/02/17 12:16:27;;;;;;;;;;;13.10;99.90;;;;;;5030590;28;19933;-70
2023/02/17 12:19:02;;;;;;;;;;;13.10;99.90;;;;;;5028927;28;20012;-73
2023/02/17 12:21:38;;;;;;;;;;;12.90;99.90;;;;;;5028965;28;19929;-71
2023/02/17 12:24:13;;;;;;;;;;;12.90;99.90;;;;;;5030113;28;19960;-72
2023/02/17 12:26:42;;;;;;;;;;;12.90;99.90;;;;;;5033219;28;19928;-73
2023/02/17 12:29:15;;;;;;;;;;;12.90;99.90;;;;;;5033428;28;19992;-73
2023/02/17 12:31:49;;;;;;;;;;;12.80;99.90;;;;;;5032741;28;19951;-73
2023/02/17 12:34:20;;;;;;;;;;;12.80;99.90;;;;;;5031903;28;20307;-72
2023/02/17 12:36:47;;;;;;;;;;;12.60;99.90;;;;;;5031401;28;19935;-73
2023/02/17 12:39:17;;;;;;;;;;;12.60;99.90;;;;;;5033245;28;20399;-72
2023/02/17 12:41:45;;;;;;;;;;;12.50;99.90;;;;;;5033937;28;19925;-73
2023/02/17 12:44:13;;;;;;;;;;;12.50;99.90;;;;;;5034853;28;20046;-73
2023/02/17 12:46:42;;;;;;;;;;;12.60;99.90;;;;;;5031834;28;19933;-73
2023/02/17 12:49:11;;;;;;;;;;;12.70;99.90;;;;;;5034459;28;19943;-72
2023/02/17 12:51:41;;;;;;;;;;;12.70;99.90;;;;;;5033580;28;22059;-73
2023/02/17 12:54:12;;;;;;;;;;;12.90;99.90;;;;;;5034524;28;19939;-73
2023/02/17 12:56:56;;;;;;;;;;;12.90;99.90;;;;;;5029737;28;20007;-72
2023/02/17 12:59:26;;;;;;;;;;;12.70;99.90;;;;;;5029603;28;19931;-73
2023/02/17 13:01:54;;;;;;;;;;;12.80;99.90;;;;;;5029572;28;20497;-73
2023/02/17 13:04:23;;;;;;;;;;;12.80;99.90;;;;;;5028317;28;19931;-74
2023/02/17 13:06:54;;;;;;;;;;;12.80;99.90;;;;;;5033367;28;20428;-73
2023/02/17 13:09:24;;;;;;;;;;;12.70;99.90;;;;;;5031933;28;20399;-73
2023/02/17 13:11:51;;;;;;;;;;;12.60;99.90;;;;;;5032812;28;19933;-74
2023/02/17 13:14:25;;;;;;;;;;;12.60;99.90;;;;;;5030935;28;19932;-71
2023/02/17 13:16:51;;;;;;;;;;;12.60;99.90;;;;;;5029847;28;19936;-74
2023/02/17 13:19:27;;;;;;;;;;;12.40;99.90;;;;;;5027783;28;19925;-74
2023/02/17 13:21:57;;;;;;;;;;;12.40;99.90;;;;;;5026613;28;20015;-74
2023/02/17 13:24:31;;;;;;;;;;;12.40;99.90;;;;;;5026844;28;19928;-74
2023/02/17 13:27:09;;;;;;;;;;;12.50;99.90;;;;;;5028330;28;19925;-73
2023/02/17 13:29:36;;;;;;;;;;;12.40;99.90;;;;;;5031196;28;19940;-73
2023/02/17 13:32:04;;;;;;;;;;;12.50;99.90;;;;;;5031602;28;20020;-73
2023/02/17 13:34:32;;;;;;;;;;;12.60;99.90;;;;;;5032034;28;19963;-73
2023/02/17 13:37:01;;;;;;;;;;;12.60;99.90;;;;;;5031760;28;19925;-73
2023/02/17 13:39:33;;;;;;;;;;;12.60;99.90;;;;;;5032412;28;20017;-73
2023/02/17 13:42:00;;;;;;;;;;;12.70;99.90;;;;;;5027822;28;20021;-74
2023/02/17 13:44:28;;;;;;;;;;;12.60;99.90;;;;;;5032123;28;19929;-72
2023/02/17 13:46:57;;;;;;;;;;;12.70;99.90;;;;;;5029700;28;21627;-71
2023/02/17 13:49:26;;;;;;;;;;;12.70;99.90;;;;;;5031459;28;19928;-72
2023/02/17 13:51:53;;;;;;;;;;;12.70;99.90;;;;;;5026972;28;19939;-72
2023/02/17 13:54:22;;;;;;;;;;;12.60;99.90;;;;;;5028996;28;19929;-72
2023/02/17 13:56:52;;;;;;;;;;;12.60;99.90;;;;;;5035315;28;19939;-69
2023/02/17 13:59:24;;;;;;;;;;;12.60;99.90;;;;;;5032861;28;19931;-70
2023/02/17 14:01:51;;;;;;;;;;;12.70;99.90;;;;;;5029511;28;20186;-69
2023/02/17 14:04:19;;;;;;;;;;;12.80;99.90;;;;;;5029110;28;19929;-70
2023/02/17 14:06:48;;;;;;;;;;;12.80;99.90;;;;;;5029233;28;19936;-69
2023/02/17 14:09:21;;;;;;;;;;;12.80;99.90;;;;;;5029749;28;19925;-69
2023/02/17 14:11:48;;;;;;;;;;;12.80;99.90;;;;;;5029376;28;19933;-69
2023/02/17 14:14:17;;;;;;;;;;;12.80;99.90;;;;;;5029080;28;20300;-70
2023/02/17 14:16:45;;;;;;;;;;;12.80;99.90;;;;;;5028955;28;20031;-71
2023/02/17 14:19:12;;;;;;;;;;;12.80;99.90;;;;;;5031955;28;19932;-71
2023/02/17 14:21:40;;;;;;;;;;;12.80;99.90;;;;;;5026984;28;20379;-70
2023/02/17 14:24:07;;;;;;;;;;;12.80;99.90;;;;;;5030016;28;19943;-71
2023/02/17 14:26:38;;;;;;;;;;;12.70;99.90;;;;;;5026358;28;19936;-69
2023/02/17 14:29:06;;;;;;;;;;;12.70;99.90;;;;;;5031016;28;20022;-70